createdAt,value
2019-02-12T00:00:14.762Z,4.00
2019-02-12T00:01:25.933Z,4.00
2019-02-12T00:02:37.094Z,4.00
2019-02-12T00:03:47.758Z,4.00
2019-02-12T00:04:58.925Z,4.00
2019-02-12T00:06:10.107Z,4.00
2019-02-12T00:07:21.265Z,4.00
2019-02-12T00:08:32.430Z,4.00
2019-02-12T00:09:43.599Z,4.00
2019-02-12T00:10:54.772Z,4.00
2019-02-12T00:12:05.949Z,4.00
2019-02-12T00:13:17.109Z,4.00
2019-02-12T00:14:28.275Z,4.00
2019-02-12T00:15:39.437Z,4.00
2019-02-12T00:16:50.640Z,4.00
2019-02-12T00:18:01.310Z,4.00
2019-02-12T00:19:12.637Z,4.00
2019-02-12T00:20:23.807Z,4.00
2019-02-12T00:21:34.973Z,4.00
2019-02-12T00:22:46.132Z,4.00
2019-02-12T00:23:57.293Z,4.00
2019-02-12T00:25:08.449Z,4.00
2019-02-12T00:26:19.600Z,4.00
2019-02-12T00:27:31.059Z,4.00
2019-02-12T00:28:42.220Z,4.00
2019-02-12T00:29:53.386Z,4.00
2019-02-12T00:31:04.549Z,4.00
2019-02-12T00:32:15.724Z,4.00
2019-02-12T00:33:26.890Z,4.00
2019-02-12T00:34:38.058Z,4.00
2019-02-12T00:35:49.213Z,4.00
2019-02-12T00:36:59.898Z,4.00
2019-02-12T00:38:11.063Z,4.00
2019-02-12T00:39:22.228Z,4.00
2019-02-12T00:40:33.395Z,4.00
2019-02-12T00:41:44.622Z,4.00
2019-02-12T00:42:55.790Z,4.00
2019-02-12T00:44:06.959Z,4.00
2019-02-12T00:45:18.120Z,4.00
2019-02-12T00:46:29.283Z,4.00
2019-02-12T00:47:40.443Z,4.00
2019-02-12T00:48:51.608Z,4.00
2019-02-12T00:50:02.871Z,4.00
2019-02-12T00:51:17.793Z,4.00
2019-02-12T00:52:24.597Z,4.00
2019-02-12T00:53:35.766Z,3.99
2019-02-12T00:54:46.928Z,4.00
2019-02-12T00:55:58.097Z,3.99
2019-02-12T00:57:08.754Z,4.00
2019-02-12T00:58:19.931Z,3.99
2019-02-12T00:59:31.093Z,4.00
2019-02-12T01:00:42.262Z,3.99
2019-02-12T01:01:53.431Z,3.99
2019-02-12T01:03:04.626Z,4.00
2019-02-12T01:04:15.793Z,3.99
2019-02-12T01:05:26.951Z,4.00
2019-02-12T01:06:38.106Z,4.00
2019-02-12T01:07:49.275Z,3.99
2019-02-12T01:09:00.446Z,4.00
2019-02-12T01:10:11.613Z,3.99
2019-02-12T01:11:22.781Z,3.99
2019-02-12T01:12:33.957Z,4.00
2019-02-12T01:13:45.118Z,3.99
2019-02-12T01:14:56.275Z,3.99
2019-02-12T01:16:07.440Z,3.99
2019-02-12T01:17:18.636Z,3.99
2019-02-12T01:18:29.831Z,3.99
2019-02-12T01:19:40.991Z,3.99
2019-02-12T01:20:52.160Z,3.99
2019-02-12T01:22:03.333Z,4.00
2019-02-12T01:23:14.631Z,3.99
2019-02-12T01:24:25.804Z,4.00
2019-02-12T01:25:36.974Z,3.99
2019-02-12T01:26:48.142Z,4.00
2019-02-12T01:27:59.308Z,3.99
2019-02-12T01:29:10.482Z,3.99
2019-02-12T01:30:21.650Z,3.99
2019-02-12T01:31:32.326Z,3.99
2019-02-12T01:32:43.495Z,3.99
2019-02-12T01:33:54.691Z,3.99
2019-02-12T01:35:05.859Z,3.99
2019-02-12T01:36:17.029Z,3.99
2019-02-12T01:37:27.699Z,4.00
2019-02-12T01:38:38.862Z,3.99
2019-02-12T01:39:50.026Z,3.99
2019-02-12T01:41:00.692Z,3.99
2019-02-12T01:42:11.853Z,3.99
2019-02-12T01:43:23.017Z,3.99
2019-02-12T01:44:34.180Z,3.99
2019-02-12T01:45:45.344Z,3.99
2019-02-12T01:46:56.627Z,3.99
2019-02-12T01:48:07.794Z,3.99
2019-02-12T01:49:18.959Z,3.99
2019-02-12T01:50:30.143Z,3.99
2019-02-12T01:51:41.304Z,3.99
2019-02-12T01:52:52.623Z,3.99
2019-02-12T01:54:03.794Z,3.99
2019-02-12T01:55:14.972Z,3.99
2019-02-12T01:56:26.133Z,3.99
2019-02-12T01:57:37.306Z,3.99
2019-02-12T01:58:49.471Z,3.99
2019-02-12T02:00:00.658Z,3.99
2019-02-12T02:01:11.814Z,3.99
2019-02-12T02:02:22.976Z,3.99
2019-02-12T02:03:34.140Z,3.99
2019-02-12T02:04:45.310Z,3.99
2019-02-12T02:05:56.628Z,3.99
2019-02-12T02:07:07.796Z,3.99
2019-02-12T02:08:18.961Z,3.99
2019-02-12T02:09:30.138Z,3.99
2019-02-12T02:10:41.309Z,3.99
2019-02-12T02:11:53.792Z,3.99
2019-02-12T02:13:04.966Z,3.99
2019-02-12T02:14:16.137Z,3.99
2019-02-12T02:15:27.316Z,3.99
2019-02-12T02:16:38.618Z,3.99
2019-02-12T02:17:49.286Z,3.99
2019-02-12T02:19:00.623Z,3.99
2019-02-12T02:20:11.800Z,3.99
2019-02-12T02:21:22.963Z,3.99
2019-02-12T02:22:34.145Z,3.99
2019-02-12T02:23:45.298Z,3.99
2019-02-12T02:24:56.618Z,3.99
2019-02-12T02:26:07.779Z,3.99
2019-02-12T02:27:18.948Z,3.99
2019-02-12T02:28:30.125Z,3.99
2019-02-12T02:29:41.315Z,3.99
2019-02-12T02:30:52.612Z,3.99
2019-02-12T02:32:03.286Z,3.99
2019-02-12T02:33:13.958Z,3.99
2019-02-12T02:34:25.120Z,3.99
2019-02-12T02:35:36.281Z,3.99
2019-02-12T02:36:47.451Z,3.99
2019-02-12T02:37:58.619Z,3.99
2019-02-12T02:39:09.790Z,3.99
2019-02-12T02:40:20.960Z,3.99
2019-02-12T02:41:31.636Z,3.99
2019-02-12T02:42:42.310Z,3.99
2019-02-12T02:43:53.487Z,3.99
2019-02-12T02:45:04.669Z,3.99
2019-02-12T02:46:15.835Z,3.99
2019-02-12T02:47:27.015Z,3.99
2019-02-12T02:48:38.681Z,3.99
2019-02-12T02:49:49.855Z,3.99
2019-02-12T02:51:01.030Z,3.99
2019-02-12T02:52:12.201Z,3.99
2019-02-12T02:53:23.367Z,3.99
2019-02-12T02:54:34.618Z,3.99
2019-02-12T02:55:45.786Z,3.99
2019-02-12T02:56:57.957Z,3.99
2019-02-12T02:58:09.118Z,3.99
2019-02-12T02:59:20.276Z,3.99
2019-02-12T03:00:31.445Z,3.99
2019-02-12T03:01:42.609Z,3.99
2019-02-12T03:02:53.773Z,3.99
2019-02-12T03:04:05.941Z,3.99
2019-02-12T03:05:17.613Z,3.99
2019-02-12T03:06:28.789Z,3.99
2019-02-12T03:07:39.959Z,3.99
2019-02-12T03:08:51.118Z,3.99
2019-02-12T03:10:02.290Z,3.99
2019-02-12T03:11:13.454Z,3.99
2019-02-12T03:12:24.618Z,3.99
2019-02-12T03:13:35.791Z,3.99
2019-02-12T03:14:47.966Z,3.99
2019-02-12T03:15:59.142Z,3.99
2019-02-12T03:17:09.821Z,3.99
2019-02-12T03:18:20.981Z,3.99
2019-02-12T03:19:32.150Z,3.99
2019-02-12T03:20:43.321Z,3.99
2019-02-12T03:22:03.134Z,3.99
2019-02-12T03:23:06.783Z,3.99
2019-02-12T03:24:17.952Z,3.99
2019-02-12T03:25:29.120Z,3.99
2019-02-12T03:26:40.300Z,3.99
2019-02-12T03:27:51.466Z,3.99
2019-02-12T03:29:02.637Z,3.99
2019-02-12T03:30:13.818Z,3.99
2019-02-12T03:31:24.978Z,3.99
2019-02-12T03:32:36.149Z,3.99
2019-02-12T03:33:48.307Z,3.99
2019-02-12T03:34:59.463Z,3.99
2019-02-12T03:36:10.650Z,3.99
2019-02-12T03:37:21.833Z,3.99
2019-02-12T03:38:33.000Z,3.99
2019-02-12T03:39:44.176Z,3.99
2019-02-12T03:40:56.347Z,3.99
2019-02-12T03:42:07.511Z,3.99
2019-02-12T03:43:18.672Z,3.99
2019-02-12T03:44:29.846Z,3.99
2019-02-12T03:45:41.023Z,3.99
2019-02-12T03:46:52.174Z,3.99
2019-02-12T03:48:03.338Z,3.99
2019-02-12T03:49:14.636Z,3.99
2019-02-12T03:50:25.811Z,3.99
2019-02-12T03:51:36.497Z,3.99
2019-02-12T03:52:47.658Z,3.99
2019-02-12T03:53:58.827Z,3.99
2019-02-12T03:55:09.996Z,3.99
2019-02-12T03:56:21.174Z,3.99
2019-02-12T03:57:32.342Z,3.99
2019-02-12T03:58:43.529Z,3.99
2019-02-12T03:59:54.701Z,3.99
2019-02-12T04:01:05.871Z,3.99
2019-02-12T04:02:17.035Z,3.99
2019-02-12T04:03:28.208Z,3.99
2019-02-12T04:04:39.374Z,3.99
2019-02-12T04:05:50.610Z,3.99
2019-02-12T04:07:01.788Z,3.99
2019-02-12T04:08:12.960Z,3.99
2019-02-12T04:09:23.638Z,3.99
2019-02-12T04:10:34.796Z,3.99
2019-02-12T04:11:45.966Z,3.99
2019-02-12T04:12:57.128Z,3.99
2019-02-12T04:14:08.300Z,3.99
2019-02-12T04:15:19.487Z,3.99
2019-02-12T04:16:30.666Z,3.99
2019-02-12T04:17:41.834Z,3.99
2019-02-12T04:18:52.992Z,3.99
2019-02-12T04:20:04.157Z,3.99
2019-02-12T04:21:14.825Z,3.99
2019-02-12T04:22:26.001Z,3.99
2019-02-12T04:23:37.176Z,3.99
2019-02-12T04:24:47.859Z,3.99
2019-02-12T04:25:59.037Z,3.99
2019-02-12T04:27:10.216Z,3.99
2019-02-12T04:28:21.388Z,3.99
2019-02-12T04:29:32.560Z,3.99
2019-02-12T04:30:43.730Z,3.99
2019-02-12T04:31:54.910Z,3.99
2019-02-12T04:33:06.080Z,3.99
2019-02-12T04:34:16.771Z,3.99
2019-02-12T04:35:27.928Z,3.99
2019-02-12T04:36:39.098Z,3.99
2019-02-12T04:37:50.258Z,3.99
2019-02-12T04:39:01.430Z,3.99
2019-02-12T04:40:12.625Z,3.99
2019-02-12T04:41:23.782Z,3.99
2019-02-12T04:42:34.949Z,3.99
2019-02-12T04:43:46.113Z,3.99
2019-02-12T04:44:57.275Z,3.99
2019-02-12T04:46:08.445Z,3.98
2019-02-12T04:47:19.608Z,3.99
2019-02-12T04:48:30.774Z,3.98
2019-02-12T04:49:41.933Z,3.98
2019-02-12T04:50:53.124Z,3.98
2019-02-12T04:52:04.290Z,3.99
2019-02-12T04:53:15.463Z,3.98
2019-02-12T04:54:26.624Z,3.98
2019-02-12T04:55:37.789Z,3.98
2019-02-12T04:56:48.950Z,3.98
2019-02-12T04:58:00.151Z,3.99
2019-02-12T04:59:11.316Z,3.99
2019-02-12T05:00:22.625Z,3.98
2019-02-12T05:01:33.797Z,3.99
2019-02-12T05:02:44.967Z,3.98
2019-02-12T05:03:56.138Z,3.99
2019-02-12T05:05:07.312Z,3.98
2019-02-12T05:06:19.474Z,3.98
2019-02-12T05:07:30.641Z,3.98
2019-02-12T05:08:41.798Z,3.98
2019-02-12T05:09:52.965Z,3.98
2019-02-12T05:11:04.127Z,3.99
2019-02-12T05:12:15.295Z,3.98
2019-02-12T05:13:26.662Z,3.98
2019-02-12T05:14:37.822Z,3.98
2019-02-12T05:15:48.993Z,3.98
2019-02-12T05:17:00.161Z,3.98
2019-02-12T05:18:11.329Z,3.98
2019-02-12T05:19:22.616Z,3.98
2019-02-12T05:20:33.783Z,3.98
2019-02-12T05:21:44.947Z,3.98
2019-02-12T05:22:56.110Z,3.98
2019-02-12T05:24:07.276Z,3.98
2019-02-12T05:25:18.443Z,3.98
2019-02-12T05:26:29.618Z,3.98
2019-02-12T05:27:40.854Z,3.98
2019-02-12T05:28:51.956Z,3.98
2019-02-12T05:30:03.121Z,3.98
2019-02-12T05:31:14.289Z,3.98
2019-02-12T05:32:25.461Z,3.98
2019-02-12T05:33:36.627Z,3.98
2019-02-12T05:34:47.840Z,3.98
2019-02-12T05:35:58.967Z,3.98
2019-02-12T05:37:10.133Z,3.98
2019-02-12T05:38:21.293Z,3.98
2019-02-12T05:39:32.645Z,3.98
2019-02-12T05:40:43.783Z,3.98
2019-02-12T05:41:54.944Z,3.98
2019-02-12T05:43:06.103Z,3.98
2019-02-12T05:44:17.337Z,3.98
2019-02-12T05:45:28.443Z,3.98
2019-02-12T05:46:42.076Z,3.98
2019-02-12T05:47:53.235Z,3.98
2019-02-12T05:49:04.398Z,3.98
2019-02-12T05:50:15.559Z,3.98
2019-02-12T05:51:26.724Z,3.98
2019-02-12T05:52:37.898Z,3.98
2019-02-12T05:53:49.058Z,3.98
2019-02-12T05:55:00.415Z,3.98
2019-02-12T05:56:11.413Z,3.98
2019-02-12T05:57:22.623Z,3.98
2019-02-12T05:58:33.804Z,3.98
2019-02-12T05:59:46.982Z,3.98
2019-02-12T06:00:56.148Z,3.98
2019-02-12T06:02:07.320Z,3.98
2019-02-12T06:03:18.000Z,3.98
2019-02-12T06:04:29.167Z,3.98
2019-02-12T06:05:40.343Z,3.98
2019-02-12T06:06:51.506Z,3.98
2019-02-12T06:08:02.680Z,3.98
2019-02-12T06:09:13.844Z,3.98
2019-02-12T06:10:25.015Z,3.98
2019-02-12T06:11:36.172Z,3.98
2019-02-12T06:12:47.357Z,3.98
2019-02-12T06:13:58.625Z,3.98
2019-02-12T06:15:09.802Z,3.98
2019-02-12T06:16:21.969Z,3.98
2019-02-12T06:17:33.142Z,3.98
2019-02-12T06:18:44.310Z,3.98
2019-02-12T06:19:55.510Z,3.98
2019-02-12T06:21:06.660Z,3.98
2019-02-12T06:22:17.832Z,3.98
2019-02-12T06:23:28.999Z,3.98
2019-02-12T06:24:39.674Z,3.98
2019-02-12T06:25:50.841Z,3.98
2019-02-12T06:27:02.016Z,3.98
2019-02-12T06:28:13.182Z,3.98
2019-02-12T06:29:24.333Z,3.98
2019-02-12T06:30:35.505Z,3.98
2019-02-12T06:31:46.688Z,3.98
2019-02-12T06:33:06.958Z,3.98
2019-02-12T06:34:09.019Z,3.98
2019-02-12T06:35:20.192Z,3.98
2019-02-12T06:36:31.361Z,3.98
2019-02-12T06:37:42.628Z,3.98
2019-02-12T06:38:53.781Z,3.98
2019-02-12T06:40:04.968Z,3.98
2019-02-12T06:41:16.119Z,3.98
2019-02-12T06:42:26.940Z,3.98
2019-02-12T06:43:37.955Z,3.98
2019-02-12T06:44:49.118Z,3.98
2019-02-12T06:46:00.285Z,3.98
2019-02-12T06:47:11.458Z,3.98
2019-02-12T06:48:22.618Z,3.98
2019-02-12T06:49:33.795Z,3.98
2019-02-12T06:50:44.957Z,3.98
2019-02-12T06:51:56.125Z,3.98
2019-02-12T06:53:12.510Z,3.98
2019-02-12T06:54:18.626Z,3.98
2019-02-12T06:55:29.801Z,3.98
2019-02-12T06:56:40.986Z,3.98
2019-02-12T06:57:52.158Z,3.98
2019-02-12T06:59:03.343Z,3.98
2019-02-12T07:00:14.649Z,3.98
2019-02-12T07:01:25.802Z,3.98
2019-02-12T07:02:36.978Z,3.98
2019-02-12T07:03:48.146Z,3.98
2019-02-12T07:04:59.336Z,3.98
2019-02-12T07:06:10.628Z,3.98
2019-02-12T07:07:21.797Z,3.98
2019-02-12T07:08:33.969Z,3.98
2019-02-12T07:09:45.152Z,3.98
2019-02-12T07:10:57.314Z,3.98
2019-02-12T07:12:08.622Z,3.98
2019-02-12T07:13:19.799Z,3.98
2019-02-12T07:14:30.974Z,3.98
2019-02-12T07:15:42.435Z,3.98
2019-02-12T07:16:53.606Z,3.98
2019-02-12T07:18:04.778Z,3.98
2019-02-12T07:19:15.944Z,3.98
2019-02-12T07:20:27.106Z,3.98
2019-02-12T07:21:38.282Z,3.98
2019-02-12T07:22:49.467Z,3.98
2019-02-12T07:24:00.643Z,3.98
2019-02-12T07:25:11.823Z,3.98
2019-02-12T07:26:23.005Z,3.98
2019-02-12T07:27:34.180Z,3.98
2019-02-12T07:28:45.360Z,3.98
2019-02-12T07:29:56.647Z,3.98
2019-02-12T07:31:07.786Z,3.98
2019-02-12T07:32:18.470Z,3.98
2019-02-12T07:33:29.640Z,3.98
2019-02-12T07:34:40.826Z,3.98
2019-02-12T07:35:52.008Z,3.98
2019-02-12T07:37:03.182Z,3.98
2019-02-12T07:38:14.374Z,3.98
2019-02-12T07:39:25.548Z,3.98
2019-02-12T07:40:36.732Z,3.98
2019-02-12T07:41:47.920Z,3.98
2019-02-12T07:42:59.079Z,3.98
2019-02-12T07:44:10.257Z,3.98
2019-02-12T07:45:21.433Z,3.98
2019-02-12T07:46:32.620Z,3.98
2019-02-12T07:47:43.308Z,3.98
2019-02-12T07:48:54.628Z,3.98
2019-02-12T07:50:05.837Z,3.98
2019-02-12T07:51:17.015Z,3.98
2019-02-12T07:52:28.186Z,3.99
2019-02-12T07:53:39.372Z,3.98
2019-02-12T07:54:50.567Z,3.98
2019-02-12T07:56:01.744Z,3.99
2019-02-12T07:57:12.926Z,3.99
2019-02-12T07:58:24.116Z,3.99
2019-02-12T07:59:35.313Z,3.99
2019-02-12T08:00:46.732Z,3.98
2019-02-12T08:01:58.915Z,3.99
2019-02-12T08:03:09.627Z,3.99
2019-02-12T08:04:20.817Z,3.99
2019-02-12T08:05:32.013Z,3.99
2019-02-12T08:06:43.214Z,3.99
2019-02-12T08:07:54.401Z,3.99
2019-02-12T08:09:05.596Z,3.99
2019-02-12T08:10:16.804Z,3.99
2019-02-12T08:11:27.991Z,3.99
2019-02-12T08:12:39.187Z,3.99
2019-02-12T08:13:50.361Z,3.99
2019-02-12T08:15:01.611Z,3.99
2019-02-12T08:16:12.800Z,3.99
2019-02-12T08:17:23.994Z,3.99
2019-02-12T08:18:35.177Z,3.99
2019-02-12T08:19:46.379Z,3.99
2019-02-12T08:20:57.583Z,3.99
2019-02-12T08:22:08.772Z,3.99
2019-02-12T08:23:19.983Z,3.99
2019-02-12T08:24:31.203Z,3.99
2019-02-12T08:25:42.407Z,3.99
2019-02-12T08:26:53.600Z,3.99
2019-02-12T08:28:04.784Z,3.99
2019-02-12T08:29:15.993Z,3.99
2019-02-12T08:30:27.212Z,3.99
2019-02-12T08:31:38.388Z,3.99
2019-02-12T08:32:49.574Z,3.99
2019-02-12T08:34:00.771Z,3.99
2019-02-12T08:35:11.959Z,3.99
2019-02-12T08:36:23.143Z,3.99
2019-02-12T08:37:34.339Z,3.99
2019-02-12T08:38:45.049Z,3.99
2019-02-12T08:39:56.251Z,3.99
2019-02-12T08:41:07.452Z,3.99
2019-02-12T08:42:18.632Z,3.99
2019-02-12T08:43:29.849Z,3.99
2019-02-12T08:44:42.046Z,3.99
2019-02-12T08:45:53.250Z,3.99
2019-02-12T08:47:04.448Z,3.99
2019-02-12T08:48:15.645Z,3.99
2019-02-12T08:49:26.841Z,3.99
2019-02-12T08:50:38.037Z,3.99
2019-02-12T08:51:49.228Z,3.99
2019-02-12T08:53:00.438Z,3.99
2019-02-12T08:54:11.638Z,3.99
2019-02-12T08:55:22.845Z,3.99
2019-02-12T08:56:34.038Z,3.99
2019-02-12T08:57:45.232Z,3.99
2019-02-12T08:58:56.426Z,3.99
2019-02-12T09:00:07.635Z,3.99
2019-02-12T09:01:18.835Z,3.99
2019-02-12T09:02:30.042Z,4.00
2019-02-12T09:03:41.252Z,4.00
2019-02-12T09:04:52.629Z,3.99
2019-02-12T09:06:04.185Z,3.99
2019-02-12T09:07:15.047Z,3.99
2019-02-12T09:08:27.247Z,3.99
2019-02-12T09:09:38.509Z,3.99
2019-02-12T09:10:50.718Z,3.99
2019-02-12T09:12:01.944Z,3.99
2019-02-12T09:13:13.156Z,3.99
2019-02-12T09:14:24.361Z,3.99
2019-02-12T09:15:35.571Z,3.99
2019-02-12T09:16:46.777Z,3.99
2019-02-12T09:17:57.984Z,3.99
2019-02-12T09:19:09.183Z,3.99
2019-02-12T09:20:20.389Z,4.00
2019-02-12T09:21:31.607Z,4.00
2019-02-12T09:22:42.822Z,4.00
2019-02-12T09:24:00.030Z,4.00
2019-02-12T09:25:05.222Z,4.00
2019-02-12T09:26:16.440Z,4.00
2019-02-12T09:27:27.648Z,4.00
2019-02-12T09:28:38.858Z,4.00
2019-02-12T09:29:50.071Z,4.00
2019-02-12T09:31:01.281Z,4.00
2019-02-12T09:32:12.625Z,4.00
2019-02-12T09:33:23.839Z,4.00
2019-02-12T09:34:35.054Z,4.00
2019-02-12T09:35:46.266Z,4.00
2019-02-12T09:36:57.504Z,4.00
2019-02-12T09:38:08.720Z,4.00
2019-02-12T09:39:19.949Z,4.00
2019-02-12T09:40:31.192Z,4.00
2019-02-12T09:41:42.409Z,4.00
2019-02-12T09:42:53.622Z,3.99
2019-02-12T09:44:04.828Z,4.00
2019-02-12T09:45:16.041Z,4.00
2019-02-12T09:46:27.270Z,4.00
2019-02-12T09:47:38.498Z,4.00
2019-02-12T09:48:49.711Z,4.00
2019-02-12T09:50:00.932Z,4.00
2019-02-12T09:51:12.144Z,4.00
2019-02-12T09:52:23.374Z,4.00
2019-02-12T09:53:34.589Z,4.00
2019-02-12T09:54:45.820Z,4.00
2019-02-12T09:55:57.030Z,4.00
2019-02-12T09:57:08.259Z,4.00
2019-02-12T09:58:19.472Z,4.00
2019-02-12T09:59:30.752Z,4.00
2019-02-12T10:00:41.966Z,4.00
2019-02-12T10:01:53.145Z,4.01
2019-02-12T10:03:04.372Z,4.01
2019-02-12T10:04:15.604Z,4.01
2019-02-12T10:05:26.916Z,4.01
2019-02-12T10:06:38.050Z,4.01
2019-02-12T10:07:49.368Z,4.01
2019-02-12T10:09:00.648Z,4.01
2019-02-12T10:10:11.874Z,4.01
2019-02-12T10:11:23.118Z,4.01
2019-02-12T10:12:34.351Z,4.01
2019-02-12T10:13:45.592Z,4.01
2019-02-12T10:14:56.826Z,4.01
2019-02-12T10:16:08.069Z,4.01
2019-02-12T10:17:19.309Z,4.01
2019-02-12T10:18:30.661Z,4.01
2019-02-12T10:19:41.911Z,4.01
2019-02-12T10:20:53.163Z,4.01
2019-02-12T10:22:04.399Z,4.01
2019-02-12T10:23:15.663Z,4.01
2019-02-12T10:24:26.881Z,4.01
2019-02-12T10:25:38.109Z,4.01
2019-02-12T10:26:49.345Z,4.01
2019-02-12T10:28:00.640Z,4.01
2019-02-12T10:29:11.889Z,4.01
2019-02-12T10:30:23.136Z,4.01
2019-02-12T10:31:34.363Z,4.01
2019-02-12T10:32:45.618Z,4.01
2019-02-12T10:33:56.867Z,4.01
2019-02-12T10:35:08.112Z,4.01
2019-02-12T10:36:19.345Z,4.01
2019-02-12T10:37:30.627Z,4.01
2019-02-12T10:38:41.870Z,4.01
2019-02-12T10:39:54.101Z,4.01
2019-02-12T10:41:05.345Z,4.01
2019-02-12T10:42:16.615Z,4.01
2019-02-12T10:43:27.866Z,4.01
2019-02-12T10:44:39.122Z,4.01
2019-02-12T10:45:50.362Z,4.01
2019-02-12T10:47:01.597Z,4.02
2019-02-12T10:48:12.848Z,4.02
2019-02-12T10:49:24.098Z,4.02
2019-02-12T10:50:35.354Z,4.03
2019-02-12T10:51:46.634Z,4.02
2019-02-12T10:52:57.884Z,4.02
2019-02-12T10:54:09.167Z,4.02
2019-02-12T10:55:20.426Z,4.02
2019-02-12T10:56:31.672Z,4.02
2019-02-12T10:57:42.919Z,4.02
2019-02-12T10:58:54.201Z,4.02
2019-02-12T11:00:05.446Z,4.01
2019-02-12T11:01:16.694Z,4.01
2019-02-12T11:02:27.938Z,4.01
2019-02-12T11:03:38.686Z,4.01
2019-02-12T11:04:49.930Z,4.02
2019-02-12T11:06:01.173Z,4.01
2019-02-12T11:07:13.415Z,4.01
2019-02-12T11:08:24.686Z,4.01
2019-02-12T11:09:35.925Z,4.01
2019-02-12T11:10:47.191Z,4.01
2019-02-12T11:11:58.444Z,4.01
2019-02-12T11:13:09.687Z,4.01
2019-02-12T11:14:20.929Z,4.01
2019-02-12T11:15:32.201Z,4.01
2019-02-12T11:16:43.452Z,4.01
2019-02-12T11:17:54.698Z,4.01
2019-02-12T11:19:05.930Z,4.01
2019-02-12T11:20:17.186Z,4.01
2019-02-12T11:21:28.432Z,4.01
2019-02-12T11:22:39.799Z,4.01
2019-02-12T11:23:51.055Z,4.02
2019-02-12T11:25:03.307Z,4.02
2019-02-12T11:26:14.631Z,4.01
2019-02-12T11:27:25.891Z,4.01
2019-02-12T11:28:37.144Z,4.01
2019-02-12T11:29:48.393Z,4.02
2019-02-12T11:30:59.655Z,4.02
2019-02-12T11:32:10.882Z,4.02
2019-02-12T11:33:22.144Z,4.02
2019-02-12T11:34:33.390Z,4.02
2019-02-12T11:35:44.874Z,4.02
2019-02-12T11:36:56.111Z,4.02
2019-02-12T11:38:07.357Z,4.03
2019-02-12T11:39:18.635Z,4.03
2019-02-12T11:40:29.893Z,4.03
2019-02-12T11:41:41.145Z,4.03
2019-02-12T11:42:52.383Z,4.03
2019-02-12T11:44:03.653Z,4.03
2019-02-12T11:45:14.894Z,4.03
2019-02-12T11:46:26.136Z,4.03
2019-02-12T11:47:37.401Z,4.03
2019-02-12T11:48:48.984Z,4.03
2019-02-12T11:50:00.306Z,4.03
2019-02-12T11:51:11.522Z,4.03
2019-02-12T11:52:22.775Z,4.03
2019-02-12T11:53:34.033Z,4.03
2019-02-12T11:54:45.288Z,4.03
2019-02-12T11:55:56.633Z,4.03
2019-02-12T11:57:07.911Z,4.03
2019-02-12T11:58:19.150Z,4.03
2019-02-12T11:59:30.422Z,4.03
2019-02-12T12:00:41.702Z,4.03
2019-02-12T12:01:52.971Z,4.03
2019-02-12T12:03:04.240Z,4.03
2019-02-12T12:04:15.509Z,4.03
2019-02-12T12:05:26.281Z,4.03
2019-02-12T12:06:37.552Z,4.03
2019-02-12T12:07:48.821Z,4.03
2019-02-12T12:09:00.096Z,4.03
2019-02-12T12:10:11.353Z,4.03
2019-02-12T12:11:22.628Z,4.03
2019-02-12T12:12:34.406Z,4.03
2019-02-12T12:13:45.681Z,4.03
2019-02-12T12:14:56.953Z,4.04
2019-02-12T12:16:08.227Z,4.03
2019-02-12T12:17:19.498Z,4.04
2019-02-12T12:18:30.767Z,4.03
2019-02-12T12:19:42.045Z,4.04
2019-02-12T12:20:53.326Z,4.03
2019-02-12T12:22:04.107Z,4.03
2019-02-12T12:23:15.382Z,4.03
2019-02-12T12:24:26.665Z,4.03
2019-02-12T12:25:37.473Z,4.03
2019-02-12T12:26:49.743Z,4.03
2019-02-12T12:28:01.025Z,4.03
2019-02-12T12:29:12.308Z,4.03
2019-02-12T12:30:24.623Z,4.03
2019-02-12T12:31:35.902Z,4.03
2019-02-12T12:32:47.200Z,4.03
2019-02-12T12:33:57.967Z,4.03
2019-02-12T12:35:10.226Z,4.03
2019-02-12T12:36:21.560Z,4.03
2019-02-12T12:37:32.325Z,4.03
2019-02-12T12:38:43.812Z,4.03
2019-02-12T12:39:54.877Z,4.03
2019-02-12T12:41:06.149Z,4.03
2019-02-12T12:42:16.914Z,4.03
2019-02-12T12:43:29.788Z,4.03
2019-02-12T12:44:40.453Z,4.04
2019-02-12T12:45:51.727Z,4.04
2019-02-12T12:47:03.002Z,4.03
2019-02-12T12:48:14.269Z,4.04
2019-02-12T12:49:27.346Z,4.04
2019-02-12T12:50:36.805Z,4.04
2019-02-12T12:51:48.109Z,4.04
2019-02-12T12:53:00.828Z,4.04
2019-02-12T12:54:11.607Z,4.03
2019-02-12T12:55:22.885Z,4.04
2019-02-12T12:56:34.149Z,4.04
2019-02-12T12:57:45.418Z,4.03
2019-02-12T12:58:56.696Z,4.03
2019-02-12T13:00:07.952Z,4.03
2019-02-12T13:01:19.227Z,4.03
2019-02-12T13:02:30.491Z,4.03
2019-02-12T13:03:41.758Z,4.03
2019-02-12T13:04:53.023Z,4.03
2019-02-12T13:06:04.288Z,4.04
2019-02-12T13:07:15.557Z,4.04
2019-02-12T13:08:27.816Z,4.03
2019-02-12T13:09:38.600Z,4.04
2019-02-12T13:10:49.871Z,4.04
2019-02-12T13:12:01.137Z,4.04
2019-02-12T13:13:12.711Z,4.04
2019-02-12T13:14:24.966Z,4.04
2019-02-12T13:15:36.234Z,4.04
2019-02-12T13:16:47.503Z,4.04
2019-02-12T13:17:58.760Z,4.04
2019-02-12T13:19:10.028Z,4.04
2019-02-12T13:20:21.299Z,4.04
2019-02-12T13:21:32.643Z,4.04
2019-02-12T13:22:43.921Z,4.04
2019-02-12T13:23:55.192Z,4.04
2019-02-12T13:25:08.656Z,4.05
2019-02-12T13:26:17.904Z,4.04
2019-02-12T13:27:29.180Z,4.04
2019-02-12T13:28:40.447Z,4.05
2019-02-12T13:29:51.238Z,4.05
2019-02-12T13:31:02.516Z,4.05
2019-02-12T13:32:13.809Z,4.05
2019-02-12T13:33:26.391Z,4.05
2019-02-12T13:34:35.881Z,4.05
2019-02-12T13:35:47.188Z,4.05
2019-02-12T13:36:58.620Z,4.05
2019-02-12T13:38:09.917Z,4.05
2019-02-12T13:39:21.219Z,4.05
2019-02-12T13:40:32.623Z,4.05
2019-02-12T13:41:43.906Z,4.05
2019-02-12T13:42:55.205Z,4.05
2019-02-12T13:44:06.618Z,4.05
2019-02-12T13:45:17.915Z,4.05
2019-02-12T13:46:29.196Z,4.05
2019-02-12T13:47:40.635Z,4.05
2019-02-12T13:48:51.926Z,4.05
2019-02-12T13:50:03.208Z,4.05
2019-02-12T13:51:14.631Z,4.05
2019-02-12T13:52:25.930Z,4.05
2019-02-12T13:53:37.236Z,4.05
2019-02-12T13:54:48.630Z,4.05
2019-02-12T13:55:59.926Z,4.05
2019-02-12T13:57:11.235Z,4.05
2019-02-12T13:58:22.051Z,4.05
2019-02-12T13:59:33.647Z,4.05
2019-02-12T14:00:44.697Z,4.05
2019-02-12T14:01:56.014Z,4.05
2019-02-12T14:03:07.320Z,4.05
2019-02-12T14:04:19.639Z,4.05
2019-02-12T14:05:30.947Z,4.05
2019-02-12T14:06:42.262Z,4.05
2019-02-12T14:07:54.651Z,4.05
2019-02-12T14:09:05.642Z,4.05
2019-02-12T14:10:17.941Z,4.05
2019-02-12T14:11:29.240Z,4.05
2019-02-12T14:12:40.633Z,4.05
2019-02-12T14:13:51.947Z,4.05
2019-02-12T14:15:03.254Z,4.05
2019-02-12T14:16:14.627Z,4.05
2019-02-12T14:17:25.930Z,4.05
2019-02-12T14:18:38.240Z,4.05
2019-02-12T14:19:49.544Z,4.05
2019-02-12T14:21:00.375Z,4.05
2019-02-12T14:22:11.673Z,4.05
2019-02-12T14:23:23.003Z,4.05
2019-02-12T14:24:34.312Z,4.05
2019-02-12T14:25:45.607Z,4.05
2019-02-12T14:26:56.910Z,4.05
2019-02-12T14:28:08.237Z,4.05
2019-02-12T14:29:19.543Z,4.05
2019-02-12T14:30:30.841Z,4.05
2019-02-12T14:31:42.153Z,4.05
2019-02-12T14:32:53.446Z,4.05
2019-02-12T14:34:04.740Z,4.05
2019-02-12T14:35:16.019Z,4.05
2019-02-12T14:36:27.341Z,4.05
2019-02-12T14:37:38.632Z,4.05
2019-02-12T14:38:49.942Z,4.05
2019-02-12T14:40:01.226Z,4.05
2019-02-12T14:41:13.510Z,4.05
2019-02-12T14:42:24.829Z,4.05
2019-02-12T14:43:36.116Z,4.05
2019-02-12T14:44:47.424Z,4.05
2019-02-12T14:45:58.720Z,4.05
2019-02-12T14:47:10.011Z,4.05
2019-02-12T14:48:21.794Z,4.05
2019-02-12T14:49:34.095Z,4.05
2019-02-12T14:50:45.380Z,4.05
2019-02-12T14:51:56.690Z,4.05
2019-02-12T14:53:07.968Z,4.05
2019-02-12T14:54:19.248Z,4.05
2019-02-12T14:55:33.905Z,4.05
2019-02-12T14:56:43.801Z,4.04
2019-02-12T14:57:55.082Z,4.05
2019-02-12T14:59:06.368Z,4.05
2019-02-12T15:00:17.661Z,4.05
2019-02-12T15:01:28.951Z,4.05
2019-02-12T15:02:40.236Z,4.05
2019-02-12T15:03:52.623Z,4.05
2019-02-12T15:05:03.413Z,4.05
2019-02-12T15:06:14.697Z,4.05
2019-02-12T15:07:27.001Z,4.05
2019-02-12T15:08:38.295Z,4.05
2019-02-12T15:09:49.579Z,4.05
2019-02-12T15:11:01.844Z,4.05
2019-02-12T15:12:12.646Z,4.05
2019-02-12T15:13:23.939Z,4.05
2019-02-12T15:14:35.211Z,4.05
2019-02-12T15:15:46.624Z,4.05
2019-02-12T15:16:57.902Z,4.05
2019-02-12T15:18:09.170Z,4.05
2019-02-12T15:19:20.459Z,4.05
2019-02-12T15:20:31.756Z,4.05
2019-02-12T15:21:44.044Z,4.05
2019-02-12T15:22:55.336Z,4.05
2019-02-12T15:24:07.826Z,4.05
2019-02-12T15:25:17.907Z,4.05
2019-02-12T15:26:29.212Z,4.05
2019-02-12T15:27:40.636Z,4.05
2019-02-12T15:28:51.903Z,4.05
2019-02-12T15:30:03.178Z,4.05
2019-02-12T15:31:14.649Z,4.05
2019-02-12T15:32:25.918Z,4.05
2019-02-12T15:33:37.196Z,4.05
2019-02-12T15:34:48.643Z,4.04
2019-02-12T15:35:59.921Z,4.05
2019-02-12T15:37:11.193Z,4.05
2019-02-12T15:38:22.656Z,4.05
2019-02-12T15:39:34.100Z,4.05
2019-02-12T15:40:45.368Z,4.05
2019-02-12T15:41:57.125Z,4.05
2019-02-12T15:43:08.386Z,4.04
2019-02-12T15:44:19.645Z,4.04
2019-02-12T15:45:31.894Z,4.04
2019-02-12T15:46:43.144Z,4.04
2019-02-12T15:47:54.395Z,4.04